Create Tblcommutelog Verified Points Advance Search
| # | Trip ID | Id Commuter | Trip Date | Trip Num | Current Lat | Current Lng | Delta Distance | Current Time | Activity | Activity Confidence | Current Speed | |
|---|---|---|---|---|---|---|---|---|---|---|---|---|
| 71281 | 260423_789319_16515915_0740 | 789319 | (not set) | (not set) | 39.039152273008 | -77.107863330228 | 8.0756 | 2026-04-23 08:06:00 | in_vehicle | 100 | -0.44703925898772 | |
| 71282 | 260423_766012_6442693_0708 | 766012 | (not set) | (not set) | 38.888642644469 | -77.066047959073 | 20.8954 | 2026-04-23 08:06:02 | on_foot | 100 | 10.112028038302 | |
| 71283 | 260423_766012_6442693_0708 | 766012 | (not set) | (not set) | 38.888642644469 | -77.066047959073 | 20.8954 | 2026-04-23 08:06:02 | on_foot | 100 | 10.112028038302 | |
| 71284 | 260423_788974_16505281_0735 | 788974 | (not set) | (not set) | 39.123500161467 | -76.865820623893 | 22.4334 | 2026-04-23 08:06:04 | in_vehicle | 100 | 11.359267570878 | |
| 71285 | 260423_790244_16496586_0746 | 790244 | (not set) | (not set) | 38.978335106576 | -76.929210348146 | 0.7871 | 2026-04-23 08:06:05 | on_foot | 100 | 0.50515436265613 | |
| 71286 | 260423_790244_16496586_0746 | 790244 | (not set) | (not set) | 38.978335106576 | -76.929210348146 | 0.7871 | 2026-04-23 08:06:05 | on_foot | 100 | 0.50515436265613 | |
| 71287 | 260423_789319_16515915_0740 | 789319 | (not set) | (not set) | 39.029617673436 | -77.104082610401 | 9.4524 | 2026-04-23 08:06:07 | still | 33 | -0.44703925898772 | |
| 71288 | 260423_789453_16505281_0735 | 789453 | (not set) | (not set) | 39.125063430284 | -76.864994916978 | 22.7246 | 2026-04-23 08:06:13 | in_vehicle | 100 | 8.0958809802677 | |
| 71289 | 260423_766012_6442693_0708 | 766012 | (not set) | (not set) | 38.890337399464 | -77.068761926965 | 21.0827 | 2026-04-23 08:06:15 | on_foot | 100 | 10.858583600812 | |
| 71290 | 260423_766012_6442693_0708 | 766012 | (not set) | (not set) | 38.890337399464 | -77.068761926965 | 21.0827 | 2026-04-23 08:06:15 | on_foot | 100 | 10.858583600812 | |
| 71291 | 260423_788974_16505281_0735 | 788974 | (not set) | (not set) | 39.126005339177 | -76.864471937339 | 22.6208 | 2026-04-23 08:06:20 | in_vehicle | 100 | 6.7502928107146 | |
| 71292 | 260423_789453_16505281_0735 | 789453 | (not set) | (not set) | 39.127131675063 | -76.863814922001 | 22.8807 | 2026-04-23 08:06:28 | in_vehicle | 100 | 7.9796507729309 | |
| 71293 | 260423_788974_16505281_0735 | 788974 | (not set) | (not set) | 39.127713561989 | -76.863398529431 | 22.7519 | 2026-04-23 08:06:32 | in_vehicle | 100 | 8.3641045356603 | |
| 71294 | 260423_788974_16505281_0735 | 788974 | (not set) | (not set) | 39.128013968746 | -76.863162272697 | 22.7762 | 2026-04-23 08:06:34 | in_vehicle | 100 | 8.632328091053 | |
| 71295 | 260423_778489_16479639_0756 | 778489 | (not set) | (not set) | 38.813582237963 | -77.048376605568 | 0.259 | 2026-04-23 08:06:38 | in_vehicle | 100 | -0.44703925898772 | |
| 71296 | 260423_778489_16479639_0756 | 778489 | (not set) | (not set) | 38.813582237963 | -77.048376605568 | 0.259 | 2026-04-23 08:06:38 | in_vehicle | 100 | -0.44703925898772 | |
| 71297 | 260423_778489_16479639_0756 | 778489 | (not set) | (not set) | 38.812699016176 | -77.048702991589 | 0.259 | 2026-04-23 08:06:38 | in_vehicle | 100 | -0.44703925898772 | |
| 71298 | 260423_778489_16479639_0756 | 778489 | (not set) | (not set) | 38.812699016176 | -77.048702991589 | 0.259 | 2026-04-23 08:06:38 | in_vehicle | 100 | -0.44703925898772 | |
| 71299 | 260423_789319_16515915_0740 | 789319 | (not set) | (not set) | 39.029506139438 | -77.10419721208 | 9.4524 | 2026-04-23 08:06:39 | still | 33 | 0 | |
| 71300 | 260423_789453_16505281_0735 | 789453 | (not set) | (not set) | 39.129086173909 | -76.862230401879 | 23.0402 | 2026-04-23 08:06:41 | in_vehicle | 100 | 9.6783999570842 |